Terminal Aerodrome Forecast
Issued by NWS

Home | Current Version | Previous Version | Text Only | Print | Product List | Glossary On
Versions: 1 2 3 4 5 6 7 8 9 10 11 12 13 14
000
FTUS44 KTSA 222320
TAFXNA
TAF
KXNA 222320Z 2300/2324 VRB05KT P6SM SCT050 BKN120
     FM230100 VRB05KT P6SM -SHRA SCT050 BKN120
      TEMPO 2302/2306 5SM -TSRA BKN035CB
     FM230600 VRB03KT P6SM VCSH SCT035 BKN050
     FM231100 29003KT 4SM BR OVC012
     FM231600 32008KT P6SM BKN015
     FM232000 31010G16KT P6SM BKN040
      TEMPO 2320/2324 4SM -TSRA BKN030CB=

USA.gov is the U.S. government's official web portal to all federal, state and local government web resources and services.